GMAD

Al Massira Airport

Agadir, Morocco
METAR GMAD 221730Z 26014KT 9999 FEW023 20/13 Q1014 NOSIG
Observed Flight Rules
May-22 @ 17:30 UTC (24 minutes ago) Visual Flight Rules
Wind Visibility Clouds
260° at 14 knots 10,000+ meters
  • Few at 2,300' AGL
Temperatures Readings
Current 20°C / 68°F
Dewpoint 13°C / 55°F
Humidity 64%
Altimeter 29.94" Hg
Pressure 1014 hPa
Elevation 74
METAR GMAD 221730Z 26014KT 9999 FEW023 20/13 Q1014 NOSIG
Observed Flight Rules
May-22 @ 17:30 UTC
(24 minutes ago)
VFR
Wind Visibility
260° at 14 knots 10,000+ meters
Clouds
  • Few at 2,300' AGL
Temperature Dewpoint
20°C / 68°F 13°C / 55°F
Humidity Altimeter Pressure
64% 29.94" Hg 1014 hPa